Latest Weather Observations for Williamtown

IDN60901

Issued at 3:25 pm EST Friday 18 April 2014 (issued every 10 minutes, with the page automatically refreshed every 10 minutes)

About weather observations | Map of Sydney area stations | Latest observations for Sydney area | Other Formats
Station Details ID: 061078 Name: WILLIAMTOWN RAAF Lat: -32.79 Lon: 151.84 Height: 9.0 m
Data from the previous 72 hours. | See also: Recent months at Williamtown
Date/Time
EST
Tmp

°C
App
Tmp
°C
Dew
Point
°C
Rel
Hum
%
Delta-T

°C
Wind Press
QNH
hPa
Press
MSL
hPa
Rain
since
9 am
mm
Dir
 
Spd
km/h
Gust
km/h
Spd
kts
Gust
kts
18/03:00pm 24.5 20.6 9.5 38 8.2 WNW 20 32 11 17 1012.5 1012.5 0.0
18/02:30pm 24.2 19.5 9.3 38 8.1 NW 24 35 13 19 1012.6 - 0.0
18/02:00pm 24.2 19.9 9.5 39 8.0 NW 22 35 12 19 1012.9 - 0.0
18/01:30pm 24.4 19.3 9.3 38 8.2 WNW 26 33 14 18 1013.2 - 0.0
18/01:00pm 23.8 19.6 9.7 40 7.7 WNW 22 32 12 17 1013.7 - 0.0
18/12:30pm 23.4 18.5 10.1 43 7.3 WNW 26 33 14 18 1014.2 - 0.0
18/12:00pm 23.3 18.3 11.1 46 6.8 WNW 28 35 15 19 1014.7 1014.7 0.0
18/11:30am 22.6 18.1 11.5 49 6.2 WNW 26 35 14 19 1015.2 - 0.0
18/11:00am 21.8 17.4 11.6 52 5.7 WNW 26 32 14 17 1015.6 - 0.0
18/10:30am 20.7 16.5 12.3 58 4.7 WNW 26 33 14 18 1016.1 - 0.0
18/10:00am 20.1 16.6 12.2 60 4.4 WNW 22 30 12 16 1016.4 - 0.0
18/09:30am 19.2 16.0 13.2 68 3.4 WNW 22 30 12 16 1016.8 - 0.0
18/09:00am 17.8 14.6 13.2 74 2.6 WNW 22 32 12 17 1017.1 1017.1 0.0
18/08:30am 16.8 13.7 13.4 80 1.9 WNW 22 30 12 16 1017.2 - 0.0
18/08:00am 15.8 11.5 13.3 85 1.4 WNW 28 35 15 19 1017.2 - 0.0
18/07:30am 14.7 11.1 13.1 90 0.9 WNW 24 32 13 17 1017.2 - 0.0
18/07:00am 14.0 11.2 12.7 92 0.7 WNW 19 26 10 14 1017.1 - 0.0
18/06:30am 13.2 10.4 12.5 95 0.4 WNW 19 26 10 14 1016.9 - 0.0
18/06:00am 13.3 10.8 12.4 94 0.5 WNW 17 22 9 12 1016.8 1016.8 0.0
18/05:30am 13.4 11.0 12.5 94 0.5 WNW 17 22 9 12 1016.9 - 0.0
18/05:00am 13.6 11.2 12.7 94 0.5 WNW 17 20 9 11 1016.8 - 0.0
18/04:30am 13.7 10.8 12.8 94 0.5 WNW 20 26 11 14 1016.8 - 0.0
18/04:00am 13.8 11.4 12.7 93 0.6 WNW 17 19 9 10 1016.8 - 0.0
18/03:30am 13.7 11.3 12.8 94 0.5 WNW 17 20 9 11 1016.8 - 0.0
18/03:00am 14.0 11.7 13.1 94 0.5 WNW 17 19 9 10 1016.9 1016.9 0.0
18/02:30am 14.3 12.0 13.0 92 0.7 WNW 17 20 9 11 1017.0 - 0.0
18/02:00am 14.6 12.4 13.2 91 0.8 WNW 17 20 9 11 1017.3 - 0.0
18/01:30am 14.7 12.5 13.4 92 0.7 WNW 17 22 9 12 1017.6 - 0.0
18/01:00am 14.8 12.7 13.5 92 0.7 WNW 17 22 9 12 1017.8 - 0.0
18/12:30am 14.8 12.7 13.5 92 0.7 WNW 17 20 9 11 1018.0 - 0.0
18/12:00am 14.7 13.1 13.8 94 0.5 NW 15 17 8 9 1018.2 1018.2 0.0
 
Date/Time
EST
Tmp

°C
App
Tmp
°C
Dew
Point
°C
Rel
Hum
%
Delta-T

°C
Wind Press
QNH
hPa
Press
MSL
hPa
Rain
since
9 am
mm
Dir
 
Spd
km/h
Gust
km/h
Spd
kts
Gust
kts
17/11:30pm 14.8 13.2 13.9 94 0.5 NW 15 17 8 9 1018.3 - 0.0
17/11:00pm 15.4 14.7 14.2 92 0.7 WNW 11 13 6 7 1018.6 - 0.0
17/10:30pm 15.1 14.3 14.0 93 0.6 WNW 11 13 6 7 1018.7 - 0.0
17/10:00pm 15.6 15.0 14.5 93 0.6 NW 11 13 6 7 1018.8 - 0.0
17/09:30pm 16.3 15.8 14.9 91 0.8 WNW 11 13 6 7 1019.0 - 0.0
17/09:00pm 17.4 17.2 14.6 83 1.6 S 9 15 5 8 1018.9 1018.9 0.0
17/08:30pm 17.7 18.0 15.1 85 1.5 SW 7 11 4 6 1018.9 - 0.0
17/08:00pm 17.9 17.9 15.3 85 1.5 W 9 9 5 5 1018.7 - 0.0
17/07:30pm 18.2 18.5 15.1 82 1.8 SSW 7 9 4 5 1018.6 - 0.0
17/07:00pm 18.1 17.7 15.2 83 1.7 SW 11 13 6 7 1018.6 - 0.0
17/06:30pm 17.8 18.1 14.9 83 1.7 SSW 7 9 4 5 1018.3 - 0.0
17/06:00pm 18.2 18.0 14.6 79 2.1 S 9 13 5 7 1018.1 1018.1 0.0
17/05:30pm 18.7 17.3 14.5 76 2.4 S 15 20 8 11 1017.9 - 0.0
17/05:00pm 19.5 17.3 14.3 72 3.0 S 19 28 10 15 1017.9 - 0.0
17/04:30pm 20.0 17.3 14.5 70 3.2 S 22 28 12 15 1017.7 - 0.0
17/04:00pm 20.2 16.6 14.1 68 3.5 S 26 35 14 19 1017.6 - 0.0
17/03:30pm 20.9 16.5 14.2 65 3.9 S 30 39 16 21 1017.5 - 0.0
17/03:00pm 20.8 17.0 14.6 67 3.6 S 28 39 15 21 1017.5 1017.5 0.0
17/02:30pm 21.8 18.8 14.8 64 4.1 S 24 33 13 18 1017.4 - 0.0
17/02:00pm 22.4 18.1 14.4 60 4.7 S 30 41 16 22 1017.6 - 0.0
17/01:30pm 22.6 18.1 12.6 53 5.7 S 28 37 15 20 1017.6 - 0.0
17/01:00pm 22.1 17.3 12.8 55 5.3 S 30 37 16 20 1017.8 - 0.0
17/12:30pm 22.1 16.9 11.7 51 5.8 S 30 33 16 18 1018.1 - 0.0
17/12:00pm 22.2 18.5 12.7 55 5.4 S 24 33 13 18 1018.5 1018.5 0.0
17/11:30am 22.1 18.8 11.7 51 5.8 SSW 20 30 11 16 1019.0 - 0.0
17/11:00am 21.8 18.2 10.4 48 6.2 SW 20 26 11 14 1019.2 - 0.0
17/10:30am 21.5 17.8 11.4 52 5.6 SW 22 32 12 17 1019.2 - 0.0
17/10:00am 20.4 17.2 11.9 58 4.7 SW 20 28 11 15 1019.3 - 0.0
17/09:30am 19.7 17.8 11.9 60 4.3 W 13 19 7 10 1019.2 - 0.0
17/09:00am 18.7 16.1 12.0 65 3.7 W 17 26 9 14 1019.4 1019.4 0.8
17/08:30am 17.5 15.0 12.2 71 2.9 WNW 17 20 9 11 1019.2 - 0.8
17/08:00am 16.2 13.3 12.2 77 2.2 WNW 19 26 10 14 1019.0 - 0.8
17/07:30am 15.0 12.5 12.2 83 1.5 WNW 17 22 9 12 1018.9 - 0.8
17/07:00am 13.8 10.5 11.7 87 1.1 WNW 20 26 11 14 1018.5 - 0.8
17/06:30am 13.3 9.9 11.4 88 1.0 WNW 20 28 11 15 1018.2 - 0.8
17/06:00am 13.2 9.9 11.7 91 0.8 WNW 20 26 11 14 1018.1 1018.1 0.8
17/05:30am 13.5 10.5 11.8 89 0.9 WNW 19 22 10 12 1018.0 - 0.8
17/05:00am 13.1 10.5 12.0 93 0.6 WNW 17 19 9 10 1017.7 - 0.8
17/04:30am 13.2 11.3 11.9 92 0.7 NW 13 15 7 8 1017.5 - 0.8
17/04:00am 13.0 13.7 12.1 94 0.5 CALM 0 0 0 0 1017.5 - 0.8
17/03:30am 13.1 11.3 12.0 93 0.6 WNW 13 15 7 8 1017.4 - 0.8
17/03:00am 13.1 11.3 12.0 93 0.6 WNW 13 15 7 8 1017.3 1017.3 0.8
17/02:30am 13.3 11.5 12.2 93 0.6 WNW 13 17 7 9 1017.1 - 0.4
17/02:00am 13.7 11.6 12.4 92 0.7 WNW 15 17 8 9 1017.3 - 0.4
17/01:30am 13.9 11.9 12.6 92 0.7 WNW 15 17 8 9 1017.5 - 0.4
17/01:00am 14.4 12.1 12.9 91 0.8 WNW 17 19 9 10 1017.9 - 0.4
17/12:30am 14.8 13.4 13.4 91 0.8 WNW 13 17 7 9 1018.1 - 0.4
17/12:00am 15.0 13.7 13.7 92 0.7 WNW 13 15 7 8 1018.2 1018.2 0.4
 
Date/Time
EST
Tmp

°C
App
Tmp
°C
Dew
Point
°C
Rel
Hum
%
Delta-T

°C
Wind Press
QNH
hPa
Press
MSL
hPa
Rain
since
9 am
mm
Dir
 
Spd
km/h
Gust
km/h
Spd
kts
Gust
kts
16/11:30pm 14.7 13.1 13.8 94 0.5 NW 15 17 8 9 1018.2 - 0.4
16/11:00pm 15.2 13.7 14.1 93 0.6 WNW 15 17 8 9 1018.2 - 0.4
16/10:30pm 15.3 14.5 13.9 91 0.8 W 11 15 6 8 1018.5 - 0.4
16/10:00pm 15.5 16.7 13.7 89 1.0 CALM 0 0 0 0 1018.7 - 0.4
16/09:30pm 15.6 14.6 13.3 86 1.3 WSW 11 13 6 7 1018.5 - 0.4
16/09:00pm 16.0 15.1 13.7 86 1.3 W 11 15 6 8 1018.6 1018.6 0.4
16/08:30pm 16.1 14.8 13.8 86 1.3 W 13 19 7 10 1018.4 - 0.4
16/08:00pm 16.5 15.6 13.8 84 1.5 WSW 11 17 6 9 1018.2 - 0.4
16/07:30pm 17.5 16.4 14.2 81 1.9 SW 13 15 7 8 1018.0 - 0.4
16/07:00pm 17.8 16.4 14.5 81 1.9 WSW 15 19 8 10 1017.8 - 0.4
16/06:30pm 17.8 16.8 14.7 82 1.8 WSW 13 19 7 10 1017.7 - 0.4
16/06:00pm 17.9 17.2 14.4 80 2.0 W 11 13 6 7 1017.5 1017.5 0.4
16/05:30pm 18.5 17.7 14.1 75 2.5 SW 11 15 6 8 1017.2 - 0.4
16/05:00pm 19.4 17.4 13.8 70 3.2 SSW 17 24 9 13 1017.1 - 0.4
16/04:30pm 20.3 17.4 13.9 66 3.7 SSW 22 30 12 16 1017.1 - 0.4
16/04:00pm 20.1 15.9 13.6 66 3.7 SSW 28 41 15 22 1016.9 - 0.4
16/03:39pm 20.8 16.7 13.9 64 4.0 SSW 28 46 15 25 1016.8 - 0.4
16/03:30pm 21.3 17.5 13.5 61 4.5 SSW 26 35 14 19 1016.8 - 0.4
16/03:00pm 22.0 18.0 14.1 61 4.6 S 28 39 15 21 1016.7 1016.7 0.4
16/02:30pm 22.0 18.4 13.1 57 5.1 S 24 33 13 18 1016.7 - 0.4
16/02:00pm 21.2 18.3 13.9 63 4.2 S 22 35 12 19 1017.1 - 0.4
16/01:30pm 20.2 22.2 16.0 77 2.5 CALM 0 9 0 5 1017.3 - 0.4
16/01:00pm 18.1 19.1 14.3 78 2.2 S 2 9 1 5 1017.7 - 0.4
16/12:30pm 17.7 14.3 15.8 89 1.1 SSW 28 37 15 20 1018.2 - 0.2
16/12:15pm 20.2 15.8 14.1 68 3.5 SSW 30 37 16 20 1018.1 - 0.0
16/12:00pm 21.6 18.5 14.4 63 4.2 SSW 24 33 13 18 1018.0 1018.0 0.0
16/11:30am 20.6 17.2 13.8 65 3.9 SSW 24 32 13 17 1018.4 - 0.0
16/11:00am 20.8 19.1 14.8 68 3.5 SW 17 28 9 15 1018.6 - 0.0
16/10:30am 19.3 17.7 15.0 76 2.5 SW 17 19 9 10 1018.8 - 0.0
16/10:00am 19.0 17.3 14.7 76 2.5 W 17 24 9 13 1018.9 - 0.0
16/09:30am 17.6 16.5 15.2 86 1.4 W 15 17 8 9 1019.0 - 0.0
16/09:00am 17.4 15.2 14.4 82 1.7 WSW 19 28 10 15 1019.2 1019.2 21.6
16/08:30am 17.2 14.8 14.4 83 1.6 W 20 26 11 14 1018.8 - 21.6
16/08:00am 15.9 14.9 14.5 91 0.8 W 13 17 7 9 1018.8 - 21.6
16/07:30am 15.7 14.3 14.5 93 0.7 W 15 19 8 10 1018.6 - 21.6
16/07:00am 15.3 14.2 14.4 94 0.5 W 13 17 7 9 1018.5 - 21.6
16/06:30am 15.3 14.2 14.2 93 0.6 W 13 19 7 10 1018.2 - 20.8
16/06:00am 15.2 14.1 14.3 94 0.5 W 13 15 7 8 1018.1 1018.1 20.8
16/05:30am 15.5 14.1 14.4 93 0.6 W 15 17 8 9 1017.9 - 20.8
16/05:00am 15.5 14.5 14.6 94 0.5 W 13 17 7 9 1017.6 - 20.2
16/04:32am 15.6 14.7 14.9 96 0.4 W 13 17 7 9 1017.5 - 20.2
16/04:30am 15.6 14.7 14.9 96 0.4 WSW 13 19 7 10 1017.5 - 20.2
16/04:16am 15.7 14.0 14.8 94 0.5 W 17 24 9 13 1017.4 - 20.0
16/04:00am 15.7 13.7 15.0 96 0.4 W 19 24 10 13 1017.3 - 18.4
16/03:30am 15.9 15.1 15.2 96 0.4 W 13 17 7 9 1017.5 - 18.4
16/03:00am 15.8 15.8 15.3 97 0.3 WNW 9 11 5 6 1017.4 1017.4 18.2
16/02:51am 15.8 15.4 15.3 97 0.3 W 11 13 6 7 1017.4 - 18.2
16/02:41am 15.8 15.8 15.3 97 0.3 WSW 9 15 5 8 1017.7 - 17.6
16/02:38am 15.8 15.8 15.3 97 0.3 WSW 9 11 5 6 1017.6 - 17.2
16/02:37am 15.9 15.9 15.2 96 0.4 WSW 9 13 5 7 1017.6 - 17.2
16/02:30am 15.9 15.1 15.2 96 0.4 WSW 13 17 7 9 1017.6 - 17.2
16/02:16am 16.0 14.9 15.3 96 0.4 W 15 22 8 12 1017.7 - 15.4
16/02:00am 16.2 14.7 15.3 94 0.5 W 17 24 9 13 1017.7 - 14.0
16/01:30am 16.3 15.1 15.1 93 0.7 SW 15 19 8 10 1018.0 - 14.0
16/01:13am 16.3 15.5 15.1 93 0.7 SW 13 15 7 8 1018.1 - 13.6
16/01:08am 16.3 15.2 15.3 94 0.6 SW 15 26 8 14 1018.1 - 13.6
16/01:00am 16.3 15.8 15.8 97 0.3 SW 13 19 7 10 1018.2 - 13.4
16/12:51am 16.4 16.7 15.9 97 0.3 SSE 9 13 5 7 1018.4 - 12.0
16/12:38am 16.6 16.2 16.1 97 0.3 SW 13 20 7 11 1018.6 - 11.0
16/12:30am 16.3 16.1 15.8 97 0.3 WSW 11 13 6 7 1018.6 - 10.2
16/12:28am 16.3 16.1 15.8 97 0.3 WSW 11 13 6 7 1018.7 - 10.2
16/12:27am 16.3 16.1 15.8 97 0.3 WSW 11 15 6 8 1018.7 - 9.6
16/12:16am 16.2 16.0 15.7 97 0.3 WSW 11 15 6 8 1018.7 - 8.2
16/12:00am 16.0 15.6 15.3 96 0.4 W 11 13 6 7 1018.6 1018.6 8.2
 
Date/Time
EST
Tmp

°C
App
Tmp
°C
Dew
Point
°C
Rel
Hum
%
Delta-T

°C
Wind Press
QNH
hPa
Press
MSL
hPa
Rain
since
9 am
mm
Dir
 
Spd
km/h
Gust
km/h
Spd
kts
Gust
kts
15/11:30pm 15.8 14.9 14.9 94 0.5 W 13 17 7 9 1018.8 - 8.2
15/11:11pm 15.6 14.6 14.7 94 0.5 W 13 17 7 9 1018.9 - 8.2
15/11:00pm 15.5 14.1 14.6 94 0.5 W 15 19 8 10 1018.8 - 8.2
15/10:30pm 15.9 14.6 14.9 94 0.6 W 15 19 8 10 1019.2 - 8.2
15/10:00pm 15.9 14.4 15.2 96 0.4 W 17 20 9 11 1019.2 - 8.2
15/09:30pm 16.5 15.5 15.6 94 0.5 WSW 15 22 8 12 1019.2 - 8.2
15/09:00pm 16.6 16.1 15.9 96 0.4 SW 13 17 7 9 1019.4 1019.4 8.0
15/08:30pm 16.8 14.6 15.9 94 0.5 S 22 30 12 16 1019.3 - 8.0
15/08:15pm 16.7 16.2 16.0 96 0.4 WSW 13 19 7 10 1019.1 - 7.8
15/08:00pm 16.6 17.3 15.7 94 0.5 WSW 6 15 3 8 1018.9 - 7.8
15/07:45pm 16.6 17.2 15.7 94 0.5 SW 7 11 4 6 1018.8 - 7.8
15/07:30pm 17.1 16.4 16.3 95 0.5 SSE 15 20 8 11 1018.7 - 7.8
15/07:25pm 17.0 17.0 16.2 95 0.5 SSE 11 26 6 14 1018.7 - 7.2
15/07:00pm 17.6 16.9 15.4 87 1.3 S 13 17 7 9 1018.6 - 0.8
15/06:56pm 17.9 16.2 14.8 82 1.8 SSW 17 26 9 14 1018.7 - 0.6
15/06:49pm 18.5 15.9 13.9 74 2.6 SW 20 28 11 15 1018.4 - 0.2
15/06:30pm 18.4 14.8 13.1 71 3.0 SW 24 33 13 18 1018.2 - 0.2
15/06:00pm 18.6 15.7 13.9 74 2.7 SW 22 32 12 17 1018.2 1018.2 0.2
15/05:30pm 18.7 16.2 14.0 74 2.7 SW 20 28 11 15 1017.9 - 0.2
15/05:00pm 18.9 16.0 14.0 73 2.8 SW 22 32 12 17 1017.8 - 0.2
15/04:30pm 18.8 16.4 13.9 73 2.8 SW 19 30 10 16 1017.9 - 0.2
15/04:00pm 19.2 15.1 12.8 66 3.6 SW 26 35 14 19 1018.0 - 0.2
15/03:30pm 19.0 16.3 13.5 70 3.1 SSW 20 28 11 15 1018.1 - 0.2

Latest Capital City Observations: Canberra | Sydney | Melbourne | Brisbane | Adelaide | Perth | Hobart | Darwin

Other Formats:

Comma delimited format used in spreadsheet applications
http://www.bom.gov.au/fwo/IDN60901/IDN60901.94776.axf

JavaScript Object Notation format (JSON) in row-major order
http://www.bom.gov.au/fwo/IDN60901/IDN60901.94776.json